Impacts METAR Board
IDs:

KDCA - Washington/National, VA, US

Updated at: 0800 UTC 23 Oct 2018
Potential Impact None Slight Moderate High
Time 22/20Z 22/21Z 22/22Z 22/23Z 23/00Z 23/01Z 23/02Z 23/03Z 23/04Z 23/05Z 23/06Z 23/07Z 23/08Z
Temp57 57 56 54 53 53 52 52 51 51 50 49 47
Dewpt35 34 35 37 38 39 40 41 42 42 41 41 41
Altim30.20 30.18 30.18 30.17 30.18 30.17 30.17 30.16 30.16 30.15 30.15 30.13 30.12
VIS10 10 10 10 10 10 10 10 10 10 10 10 10
CIG250 -- -- 250 250 -- -- -- 130 130 140 -- --
CoverBKNSCTSCTBKNBKNSCTSCTSCTOVCBKNBKNSCTFEW
FltCatVFRVFRVFRVFRVFRVFRVFRVFRVFRVFRVFRVFRVFR
WX--------------------------
WDir200210190190200190190190180190200190220
WSpd11 13 9 8 7 9 8 8 6 6 4 6 5
WGst-- 20 -- -- -- -- -- -- -- -- -- -- --
Raw hourly METARs
KDCA 221952Z 20011KT 10SM BKN250 14/02 A3020 RMK AO2 SLP227 T01390017
KDCA 222052Z 21013G20KT 10SM SCT250 14/01 A3018 RMK AO2 SLP221 T01390011 56024
KDCA 222152Z 19009KT 10SM FEW120 SCT250 13/02 A3018 RMK AO2 SLP219 T01330017
KDCA 222252Z 19008KT 10SM FEW120 BKN250 12/03 A3017 RMK AO2 SLP218 T01220028
KDCA 222352Z 20007KT 10SM FEW120 BKN250 12/03 A3018 RMK AO2 SLP220 T01170033 10144 20117 55002
KDCA 230052Z 19009KT 10SM SCT250 12/04 A3017 RMK AO2 SLP217 T01170039
KDCA 230152Z 19008KT 10SM SCT250 11/04 A3017 RMK AO2 SLP216 T01110044
KDCA 230252Z 19008KT 10SM SCT250 11/05 A3016 RMK AO2 SLP213 T01110050 56006
KDCA 230352Z 18006KT 10SM BKN130 OVC250 11/06 A3016 RMK AO2 SLP212 T01060056
KDCA 230452Z 19006KT 10SM FEW065 BKN130 BKN250 11/06 A3015 RMK AO2 SLP211 T01060056 401440033
KDCA 230552Z 20004KT 10SM SCT095 BKN140 BKN250 10/05 A3015 RMK AO2 SLP208 T01000050 10117 20100 58005
KDCA 230652Z 19006KT 10SM FEW090 SCT150 SCT250 09/05 A3013 RMK AO2 SLP203 T00940050
KDCA 230752Z 22005KT 10SM FEW150 FEW250 08/05 A3012 RMK AO2 SLP198 T00830050



Page loaded:  08:02 UTC  |   01:02 AM Pacific  |   02:02 AM Mountain  |   03:02 AM Central  |   04:02 AM Eastern

 

ADVISORIES

FORECASTS

FORECASTS

OBSERVATIONS

USER TOOLS

ABOUT US